createdAt,value
2023-03-28T00:00:01.961Z,1.5
2023-03-28T00:01:01.614Z,1.5
2023-03-28T00:02:01.213Z,1.5
2023-03-28T00:03:01.833Z,1.5
2023-03-28T00:04:01.509Z,1.5
2023-03-28T00:05:01.032Z,1.4
2023-03-28T00:06:01.861Z,1.4
2023-03-28T00:07:01.288Z,1.4
2023-03-28T00:08:01.831Z,1.4
2023-03-28T00:09:01.442Z,1.4
2023-03-28T00:10:01.001Z,1.3
2023-03-28T00:11:01.595Z,1.3
2023-03-28T00:12:01.191Z,1.4
2023-03-28T00:13:01.768Z,1.4
2023-03-28T00:14:01.474Z,1.3
2023-03-28T00:15:01.943Z,1.4
2023-03-28T00:16:01.716Z,1.3
2023-03-28T00:17:01.157Z,1.3
2023-03-28T00:18:01.760Z,1.3
2023-03-28T00:19:01.402Z,1.3
2023-03-28T00:20:01.042Z,1.3
2023-03-28T00:21:01.550Z,1.3
2023-03-28T00:22:01.188Z,1.3
2023-03-28T00:23:01.714Z,1.3
2023-03-28T00:24:01.336Z,1.3
2023-03-28T00:25:01.931Z,1.3
2023-03-28T00:26:01.606Z,1.2
2023-03-28T00:27:01.134Z,1.2
2023-03-28T00:28:01.711Z,1.2
2023-03-28T00:29:01.466Z,1.2
2023-03-28T00:30:01.876Z,1.2
2023-03-28T00:31:01.505Z,1.3
2023-03-28T00:32:01.037Z,1.3
2023-03-28T00:33:01.712Z,1.3
2023-03-28T00:34:01.366Z,1.2
2023-03-28T00:35:01.848Z,1.3
2023-03-28T00:36:01.704Z,1.3
2023-03-28T00:37:01.007Z,1.3
2023-03-28T00:38:01.619Z,1.2
2023-03-28T00:39:01.252Z,1.2
2023-03-28T00:40:01.865Z,1.2
2023-03-28T00:41:01.439Z,1.1
2023-03-28T00:42:01.038Z,1.1
2023-03-28T00:43:01.602Z,1.1
2023-03-28T00:44:01.209Z,1.1
2023-03-28T00:45:01.781Z,1.1
2023-03-28T00:46:08.901Z,1.1
2023-03-28T00:47:01.960Z,1
2023-03-28T00:48:01.681Z,1
2023-03-28T00:49:01.235Z,1
2023-03-28T00:50:01.796Z,1
2023-03-28T00:51:01.390Z,1.1
2023-03-28T00:52:01.975Z,1.1
2023-03-28T00:53:01.568Z,1.1
2023-03-28T00:54:01.283Z,1.1
2023-03-28T00:55:01.813Z,1.1
2023-03-28T00:56:01.482Z,1.1
2023-03-28T00:57:00.997Z,1.1
2023-03-28T00:58:01.584Z,1.1
2023-03-28T00:59:01.201Z,1.1
2023-03-28T01:00:01.824Z,1.1
2023-03-28T01:01:01.478Z,1.1
2023-03-28T01:02:02.073Z,1.1
2023-03-28T01:03:01.821Z,1.1
2023-03-28T01:04:01.224Z,1.1
2023-03-28T01:05:01.787Z,1.1
2023-03-28T01:06:01.522Z,1.1
2023-03-28T01:07:01.957Z,1.1
2023-03-28T01:08:01.555Z,1.1
2023-03-28T01:09:01.164Z,1.1
2023-03-28T01:10:01.784Z,1
2023-03-28T01:11:01.393Z,0.9
2023-03-28T01:12:01.982Z,0.9
2023-03-28T01:13:01.831Z,0.9
2023-03-28T01:14:01.219Z,0.8
2023-03-28T01:15:01.811Z,0.8
2023-03-28T01:16:01.676Z,0.8
2023-03-28T01:17:01.041Z,0.7
2023-03-28T01:18:01.632Z,0.7
2023-03-28T01:19:01.245Z,0.7
2023-03-28T01:20:01.883Z,0.6
2023-03-28T01:21:01.499Z,0.5
2023-03-28T01:22:01.093Z,0.6
2023-03-28T01:23:01.644Z,0.5
2023-03-28T01:24:11.035Z,0.5
2023-03-28T01:25:01.813Z,0.6
2023-03-28T01:26:01.686Z,0.5
2023-03-28T01:27:01.001Z,0.4
2023-03-28T01:28:01.576Z,0.4
2023-03-28T01:29:01.185Z,0.3
2023-03-28T01:30:01.772Z,0.3
2023-03-28T01:31:01.376Z,0.3
2023-03-28T01:32:01.946Z,0.2
2023-03-28T01:33:01.577Z,0.2
2023-03-28T01:34:01.189Z,0.1
2023-03-28T01:35:01.774Z,0.1
2023-03-28T01:36:01.567Z,0
2023-03-28T01:37:01.952Z,0
2023-03-28T01:38:01.575Z,0
2023-03-28T01:39:01.168Z,0
2023-03-28T01:40:01.780Z,0
2023-03-28T01:41:01.413Z,0
2023-03-28T01:42:01.975Z,0
2023-03-28T01:43:01.590Z,0
2023-03-28T01:44:01.177Z,0
2023-03-28T01:45:01.763Z,0
2023-03-28T01:46:01.553Z,0
2023-03-28T01:47:01.936Z,0
2023-03-28T01:48:01.596Z,0
2023-03-28T01:49:01.157Z,0
2023-03-28T01:50:01.740Z,0
2023-03-28T01:51:01.330Z,0
2023-03-28T01:52:01.921Z,0
2023-03-28T01:53:01.524Z,0
2023-03-28T01:54:01.116Z,-0.1
2023-03-28T01:55:01.703Z,-0.1
2023-03-28T01:56:01.451Z,0
2023-03-28T01:57:01.991Z,0
2023-03-28T01:58:01.559Z,0
2023-03-28T01:59:01.091Z,0
2023-03-28T02:00:01.670Z,0
2023-03-28T02:01:01.314Z,0
2023-03-28T02:02:01.916Z,0
2023-03-28T02:03:01.590Z,0
2023-03-28T02:04:01.107Z,0.1
2023-03-28T02:05:01.658Z,0.1
2023-03-28T02:06:01.531Z,0
2023-03-28T02:07:01.458Z,0.1
2023-03-28T02:08:01.089Z,0.3
2023-03-28T02:09:01.655Z,0.2
2023-03-28T02:10:01.248Z,0.2
2023-03-28T02:11:01.837Z,0.2
2023-03-28T02:12:01.449Z,0.1
2023-03-28T02:13:01.041Z,0
2023-03-28T02:14:01.656Z,0
2023-03-28T02:15:01.246Z,0
2023-03-28T02:16:02.001Z,0
2023-03-28T02:17:01.502Z,0
2023-03-28T02:18:01.161Z,0
2023-03-28T02:19:01.673Z,0
2023-03-28T02:20:01.275Z,0
2023-03-28T02:21:01.896Z,0
2023-03-28T02:22:01.493Z,0
2023-03-28T02:23:01.063Z,-0.1
2023-03-28T02:24:01.650Z,-0.1
2023-03-28T02:25:01.263Z,-0.1
2023-03-28T02:26:01.892Z,-0.1
2023-03-28T02:27:01.461Z,-0.1
2023-03-28T02:28:01.049Z,-0.1
2023-03-28T02:29:01.633Z,-0.1
2023-03-28T02:30:01.376Z,-0.1
2023-03-28T02:31:01.797Z,-0.1
2023-03-28T02:32:01.432Z,0
2023-03-28T02:33:01.011Z,0
2023-03-28T02:34:01.573Z,-0.1
2023-03-28T02:35:01.181Z,-0.1
2023-03-28T02:36:01.963Z,-0.1
2023-03-28T02:37:01.397Z,-0.1
2023-03-28T02:38:00.980Z,-0.1
2023-03-28T02:39:01.549Z,-0.1
2023-03-28T02:40:01.144Z,-0.2
2023-03-28T02:41:01.739Z,-0.2
2023-03-28T02:42:01.332Z,-0.2
2023-03-28T02:43:01.923Z,-0.2
2023-03-28T02:44:01.594Z,-0.2
2023-03-28T02:45:01.142Z,-0.2
2023-03-28T02:46:02.044Z,-0.2
2023-03-28T02:47:01.910Z,-0.2
2023-03-28T02:48:01.535Z,-0.2
2023-03-28T02:49:01.146Z,-0.2
2023-03-28T02:50:01.745Z,-0.2
2023-03-28T02:51:01.357Z,-0.2
2023-03-28T02:52:01.908Z,-0.2
2023-03-28T02:53:01.567Z,-0.2
2023-03-28T02:54:01.152Z,-0.2
2023-03-28T02:55:01.735Z,-0.2
2023-03-28T02:56:01.450Z,-0.3
2023-03-28T02:57:01.964Z,-0.3
2023-03-28T02:58:01.629Z,-0.4
2023-03-28T02:59:01.143Z,-0.4
2023-03-28T03:00:01.730Z,-0.4
2023-03-28T03:01:01.335Z,-0.5
2023-03-28T03:02:01.916Z,-0.4
2023-03-28T03:03:01.604Z,-0.4
2023-03-28T03:04:01.089Z,-0.4
2023-03-28T03:05:01.651Z,-0.4
2023-03-28T03:06:01.395Z,-0.4
2023-03-28T03:07:01.831Z,-0.3
2023-03-28T03:08:01.439Z,-0.4
2023-03-28T03:09:01.014Z,-0.3
2023-03-28T03:10:01.618Z,-0.3
2023-03-28T03:11:01.232Z,-0.2
2023-03-28T03:12:01.815Z,-0.2
2023-03-28T03:13:01.440Z,-0.3
2023-03-28T03:14:01.000Z,-0.2
2023-03-28T03:15:01.602Z,-0.3
2023-03-28T03:16:01.394Z,-0.2
2023-03-28T03:17:01.766Z,-0.2
2023-03-28T03:18:01.455Z,-0.2
2023-03-28T03:19:01.935Z,-0.2
2023-03-28T03:20:01.579Z,-0.3
2023-03-28T03:21:01.214Z,-0.2
2023-03-28T03:22:01.741Z,-0.3
2023-03-28T03:23:01.361Z,-0.3
2023-03-28T03:24:01.908Z,-0.3
2023-03-28T03:25:01.505Z,-0.3
2023-03-28T03:26:01.319Z,-0.2
2023-03-28T03:27:01.703Z,-0.3
2023-03-28T03:28:01.323Z,-0.3
2023-03-28T03:29:01.886Z,-0.3
2023-03-28T03:30:01.469Z,-0.4
2023-03-28T03:31:01.094Z,-0.3
2023-03-28T03:32:01.652Z,-0.3
2023-03-28T03:33:01.283Z,-0.3
2023-03-28T03:34:01.880Z,-0.3
2023-03-28T03:35:01.465Z,-0.3
2023-03-28T03:36:01.196Z,-0.2
2023-03-28T03:37:01.647Z,-0.3
2023-03-28T03:38:01.248Z,-0.3
2023-03-28T03:39:01.848Z,-0.2
2023-03-28T03:40:01.443Z,-0.2
2023-03-28T03:41:01.052Z,-0.3
2023-03-28T03:42:01.600Z,-0.2
2023-03-28T03:43:01.228Z,-0.3
2023-03-28T03:44:01.800Z,-0.3
2023-03-28T03:45:01.411Z,-0.3
2023-03-28T03:46:02.228Z,-0.3
2023-03-28T03:47:01.147Z,-0.3
2023-03-28T03:48:01.763Z,-0.3
2023-03-28T03:49:01.389Z,-0.3
2023-03-28T03:50:02.001Z,-0.3
2023-03-28T03:51:01.652Z,-0.3
2023-03-28T03:52:01.189Z,-0.3
2023-03-28T03:53:01.761Z,-0.3
2023-03-28T03:54:01.360Z,-0.4
2023-03-28T03:55:01.969Z,-0.3
2023-03-28T03:56:01.718Z,-0.3
2023-03-28T03:57:01.203Z,-0.3
2023-03-28T03:58:01.754Z,-0.3
2023-03-28T03:59:01.349Z,-0.3
2023-03-28T04:00:01.967Z,-0.4
2023-03-28T04:01:01.584Z,-0.4
2023-03-28T04:02:01.222Z,-0.4
2023-03-28T04:03:01.798Z,-0.3
2023-03-28T04:04:01.432Z,-0.3
2023-03-28T04:05:01.952Z,-0.3
2023-03-28T04:06:01.676Z,-0.3
2023-03-28T04:07:01.193Z,-0.3
2023-03-28T04:08:01.791Z,-0.3
2023-03-28T04:09:01.390Z,-0.3
2023-03-28T04:10:01.970Z,-0.2
2023-03-28T04:11:01.580Z,-0.2
2023-03-28T04:12:01.178Z,-0.3
2023-03-28T04:13:01.764Z,-0.3
2023-03-28T04:14:01.360Z,-0.3
2023-03-28T04:15:01.992Z,-0.3
2023-03-28T04:16:01.773Z,-0.3
2023-03-28T04:17:01.170Z,-0.3
2023-03-28T04:18:04.513Z,-0.3
2023-03-28T04:19:01.285Z,-0.3
2023-03-28T04:20:01.896Z,-0.3
2023-03-28T04:21:01.550Z,-0.2
2023-03-28T04:22:01.168Z,-0.2
2023-03-28T04:23:01.708Z,-0.2
2023-03-28T04:24:01.304Z,-0.2
2023-03-28T04:25:01.887Z,-0.2
2023-03-28T04:26:01.670Z,-0.2
2023-03-28T04:27:01.153Z,-0.3
2023-03-28T04:28:01.745Z,-0.4
2023-03-28T04:29:01.370Z,-0.3
2023-03-28T04:30:01.973Z,-0.4
2023-03-28T04:31:01.639Z,-0.4
2023-03-28T04:32:01.176Z,-0.4
2023-03-28T04:33:01.832Z,-0.3
2023-03-28T04:34:01.416Z,-0.2
2023-03-28T04:35:01.155Z,-0.2
2023-03-28T04:36:01.952Z,-0.2
2023-03-28T04:37:02.025Z,-0.1
2023-03-28T04:38:01.731Z,-0.2
2023-03-28T04:39:01.392Z,-0.2
2023-03-28T04:40:01.898Z,0
2023-03-28T04:41:01.540Z,0
2023-03-28T04:42:01.096Z,0
2023-03-28T04:43:01.661Z,0
2023-03-28T04:44:01.260Z,0
2023-03-28T04:45:01.828Z,0
2023-03-28T04:46:01.663Z,0
2023-03-28T04:47:01.012Z,0.1
2023-03-28T04:48:01.598Z,0.1
2023-03-28T04:49:01.217Z,0.1
2023-03-28T04:50:01.805Z,0
2023-03-28T04:51:01.415Z,0
2023-03-28T04:52:01.008Z,0
2023-03-28T04:53:01.573Z,0
2023-03-28T04:54:01.212Z,0
2023-03-28T04:55:01.799Z,0
2023-03-28T04:56:01.595Z,0
2023-03-28T04:57:02.038Z,0
2023-03-28T04:58:01.700Z,-0.1
2023-03-28T04:59:01.185Z,0
2023-03-28T05:00:01.790Z,0
2023-03-28T05:01:01.587Z,-0.1
2023-03-28T05:02:02.002Z,-0.1
2023-03-28T05:03:01.820Z,0
2023-03-28T05:04:01.170Z,-0.1
2023-03-28T05:05:01.762Z,-0.1
2023-03-28T05:06:01.369Z,-0.1
2023-03-28T05:07:01.959Z,-0.1
2023-03-28T05:08:01.578Z,-0.2
2023-03-28T05:09:01.172Z,-0.1
2023-03-28T05:10:01.810Z,-0.1
2023-03-28T05:11:01.644Z,-0.1
2023-03-28T05:12:00.971Z,-0.2
2023-03-28T05:13:01.593Z,-0.1
2023-03-28T05:14:01.187Z,-0.1
2023-03-28T05:15:01.802Z,-0.1
2023-03-28T05:16:01.426Z,-0.1
2023-03-28T05:17:00.983Z,0
2023-03-28T05:18:01.562Z,-0.1
2023-03-28T05:19:01.196Z,-0.1
2023-03-28T05:20:01.870Z,0
2023-03-28T05:21:01.453Z,-0.1
2023-03-28T05:22:00.997Z,0
2023-03-28T05:23:01.621Z,0
2023-03-28T05:24:01.213Z,0
2023-03-28T05:25:01.837Z,0.1
2023-03-28T05:26:01.455Z,0.1
2023-03-28T05:27:01.014Z,0.1
2023-03-28T05:28:01.599Z,0.3
2023-03-28T05:29:01.188Z,0.3
2023-03-28T05:30:01.821Z,0.3
2023-03-28T05:31:01.588Z,0.2
2023-03-28T05:32:00.995Z,0.2
2023-03-28T05:33:01.651Z,0.3
2023-03-28T05:34:01.226Z,0.3
2023-03-28T05:35:01.843Z,0.3
2023-03-28T05:36:01.465Z,0.4
2023-03-28T05:37:01.009Z,0.4
2023-03-28T05:38:01.600Z,0.5
2023-03-28T05:39:01.192Z,0.5
2023-03-28T05:40:01.860Z,0.5
2023-03-28T05:41:01.721Z,0.5
2023-03-28T05:42:01.715Z,0.6
2023-03-28T05:43:01.320Z,0.5
2023-03-28T05:44:01.933Z,0.4
2023-03-28T05:45:01.552Z,0.4
2023-03-28T05:46:01.192Z,0.4
2023-03-28T05:47:01.726Z,0.4
2023-03-28T05:48:01.368Z,0.5
2023-03-28T05:49:01.929Z,0.4
2023-03-28T05:50:01.530Z,0.4
2023-03-28T05:51:01.555Z,0.4
2023-03-28T05:52:01.270Z,0.5
2023-03-28T05:53:01.880Z,0.4
2023-03-28T05:54:01.524Z,0.4
2023-03-28T05:55:01.122Z,0.4
2023-03-28T05:56:01.720Z,0.3
2023-03-28T05:57:01.384Z,0.3
2023-03-28T05:58:01.931Z,0.5
2023-03-28T05:59:01.554Z,0.5
2023-03-28T06:00:01.152Z,0.6
2023-03-28T06:01:02.018Z,0.6
2023-03-28T06:02:01.396Z,0.6
2023-03-28T06:03:01.016Z,0.7
2023-03-28T06:04:01.605Z,0.7
2023-03-28T06:05:01.280Z,0.8
2023-03-28T06:06:01.815Z,0.8
2023-03-28T06:07:03.049Z,0.8
2023-03-28T06:08:01.812Z,0.8
2023-03-28T06:09:01.405Z,0.9
2023-03-28T06:10:01.017Z,0.9
2023-03-28T06:11:01.673Z,1
2023-03-28T06:12:01.234Z,1.1
2023-03-28T06:13:01.819Z,1.2
2023-03-28T06:14:01.588Z,1.2
2023-03-28T06:15:01.048Z,1.1
2023-03-28T06:16:01.636Z,1.2
2023-03-28T06:17:01.233Z,1.2
2023-03-28T06:18:01.843Z,1.3
2023-03-28T06:19:10.811Z,1.3
2023-03-28T06:20:01.010Z,1.3
2023-03-28T06:21:01.954Z,1.3
2023-03-28T06:23:01.908Z,1.4
2023-03-28T06:24:01.511Z,1.3
2023-03-28T06:25:01.095Z,1.3
2023-03-28T06:26:01.711Z,1.3
2023-03-28T06:27:01.313Z,1.3
2023-03-28T06:28:01.958Z,1.3
2023-03-28T06:29:01.562Z,1.3
2023-03-28T06:30:01.148Z,1.5
2023-03-28T06:31:02.144Z,1.6
2023-03-28T06:32:01.920Z,1.6
2023-03-28T06:33:01.626Z,1.6
2023-03-28T06:34:01.317Z,1.7
2023-03-28T06:35:01.924Z,1.8
2023-03-28T06:36:01.539Z,1.8
2023-03-28T06:37:01.172Z,1.9
2023-03-28T06:38:01.782Z,1.9
2023-03-28T06:39:01.503Z,1.9
2023-03-28T06:40:00.971Z,2
2023-03-28T06:41:01.680Z,1.9
2023-03-28T06:42:01.200Z,2
2023-03-28T06:43:01.820Z,2
2023-03-28T06:44:01.414Z,1.9
2023-03-28T06:45:00.998Z,2
2023-03-28T06:46:01.626Z,2.1
2023-03-28T06:47:01.218Z,2.2
2023-03-28T06:48:01.876Z,2.3
2023-03-28T06:49:01.491Z,2.4
2023-03-28T06:50:01.058Z,2.4
2023-03-28T06:51:01.802Z,2.4
2023-03-28T06:52:01.303Z,2.4
2023-03-28T06:53:01.884Z,2.4
2023-03-28T06:54:01.502Z,2.5
2023-03-28T06:55:01.108Z,2.4
2023-03-28T06:56:01.685Z,2.3
2023-03-28T06:57:01.324Z,2.2
2023-03-28T06:58:01.873Z,2.3
2023-03-28T06:59:01.501Z,2.4
2023-03-28T07:00:01.035Z,2.6
2023-03-28T07:01:01.795Z,2.7
2023-03-28T07:02:01.380Z,2.8
2023-03-28T07:03:01.940Z,2.8
2023-03-28T07:04:01.611Z,2.8
2023-03-28T07:05:01.129Z,3
2023-03-28T07:06:01.724Z,3
2023-03-28T07:07:01.331Z,2.9
2023-03-28T07:08:01.911Z,2.9
2023-03-28T07:09:01.917Z,3
2023-03-28T07:10:01.123Z,3.2
2023-03-28T07:11:01.849Z,2.9
2023-03-28T07:12:01.630Z,2.8
2023-03-28T07:13:01.986Z,2.8
2023-03-28T07:14:01.577Z,3.1
2023-03-28T07:15:01.168Z,3.2
2023-03-28T07:16:01.803Z,3.1
2023-03-28T07:17:01.445Z,3
2023-03-28T07:18:01.051Z,3.1
2023-03-28T07:19:01.587Z,3.3
2023-03-28T07:20:01.187Z,3.2
2023-03-28T07:21:04.190Z,3.2
2023-03-28T07:22:01.610Z,3.2
2023-03-28T07:23:01.015Z,3.1
2023-03-28T07:24:01.638Z,3.1
2023-03-28T07:25:01.228Z,3.2
2023-03-28T07:26:01.812Z,3.2
2023-03-28T07:27:14.566Z,3.2
2023-03-28T07:28:00.997Z,3.2
2023-03-28T07:29:01.586Z,3.3
2023-03-28T07:30:01.194Z,3.2
2023-03-28T07:31:02.121Z,3.3
2023-03-28T07:32:01.024Z,3.3
2023-03-28T07:33:11.752Z,3.5
2023-03-28T07:34:01.226Z,3.6
2023-03-28T07:35:01.851Z,3.6
2023-03-28T07:36:01.476Z,3.7
2023-03-28T07:37:01.023Z,3.7
2023-03-28T07:38:01.629Z,3.8
2023-03-28T07:39:01.226Z,3.8
2023-03-28T07:40:01.845Z,3.8
2023-03-28T07:41:01.761Z,3.8
2023-03-28T07:42:01.577Z,3.7
2023-03-28T07:43:01.164Z,3.7
2023-03-28T07:44:01.760Z,3.8
2023-03-28T07:45:01.376Z,3.8
2023-03-28T07:46:00.992Z,3.8
2023-03-28T07:47:01.635Z,3.6
2023-03-28T07:48:01.243Z,3.6
2023-03-28T07:49:01.812Z,3.7
2023-03-28T07:50:01.445Z,3.7
2023-03-28T07:51:01.146Z,3.8
2023-03-28T07:52:01.571Z,3.8
2023-03-28T07:53:01.172Z,3.9
2023-03-28T07:54:01.751Z,3.8
2023-03-28T07:55:01.357Z,3.9
2023-03-28T07:56:01.925Z,3.8
2023-03-28T07:57:01.533Z,3.7
2023-03-28T07:58:01.165Z,3.7
2023-03-28T07:59:01.731Z,3.8
2023-03-28T08:00:01.321Z,3.9
2023-03-28T08:01:01.993Z,3.9
2023-03-28T08:02:01.651Z,3.8
2023-03-28T08:03:01.199Z,4
2023-03-28T08:04:01.797Z,4
2023-03-28T08:05:01.408Z,4
2023-03-28T08:06:01.106Z,4
2023-03-28T08:07:01.570Z,4.1
2023-03-28T08:08:01.175Z,4.3
2023-03-28T08:09:01.754Z,4.3
2023-03-28T08:10:01.354Z,4.3
2023-03-28T08:11:02.084Z,4.4
2023-03-28T08:12:01.795Z,4.3
2023-03-28T08:13:01.193Z,4.4
2023-03-28T08:14:01.787Z,4.5
2023-03-28T08:15:01.397Z,4.6
2023-03-28T08:16:00.980Z,4.7
2023-03-28T08:17:01.545Z,4.5
2023-03-28T08:18:01.170Z,4.4
2023-03-28T08:19:10.365Z,4.5
2023-03-28T08:20:01.267Z,4.5
2023-03-28T08:21:02.224Z,4.6
2023-03-28T08:22:01.309Z,4.5
2023-03-28T08:23:01.897Z,4.4
2023-03-28T08:24:01.489Z,4.4
2023-03-28T08:25:01.150Z,4.4
2023-03-28T08:26:01.670Z,4.4
2023-03-28T08:27:01.268Z,4.6
2023-03-28T08:28:01.838Z,4.8
2023-03-28T08:29:01.428Z,4.9
2023-03-28T08:30:01.032Z,4.9
2023-03-28T08:31:01.843Z,5
2023-03-28T08:32:01.280Z,5
2023-03-28T08:33:01.911Z,4.8
2023-03-28T08:34:01.500Z,4.8
2023-03-28T08:35:01.105Z,4.9
2023-03-28T08:36:01.697Z,5
2023-03-28T08:37:01.303Z,5.1
2023-03-28T08:38:01.920Z,5.3
2023-03-28T08:39:01.520Z,5.1
2023-03-28T08:40:01.166Z,5.1
2023-03-28T08:41:01.834Z,5.2
2023-03-28T08:42:01.354Z,5.4
2023-03-28T08:43:01.931Z,5.6
2023-03-28T08:44:01.517Z,5.6
2023-03-28T08:45:01.125Z,5.6
2023-03-28T08:46:01.781Z,5.6
2023-03-28T08:47:01.379Z,5.7
2023-03-28T08:48:01.947Z,5.9
2023-03-28T08:49:01.884Z,5.9
2023-03-28T08:50:01.167Z,6.1
2023-03-28T08:51:02.001Z,6
2023-03-28T08:52:01.407Z,6.1
2023-03-28T08:53:00.988Z,6.1
2023-03-28T08:54:01.598Z,5.9
2023-03-28T08:55:01.194Z,6
2023-03-28T08:56:01.800Z,6.1
2023-03-28T08:57:01.412Z,6.1
2023-03-28T08:58:00.978Z,6.2
2023-03-28T08:59:01.580Z,6.5
2023-03-28T09:00:01.168Z,6.5
2023-03-28T09:01:01.907Z,6.4
2023-03-28T09:02:01.429Z,6.4
2023-03-28T09:03:01.084Z,6.2
2023-03-28T09:04:01.641Z,6.3
2023-03-28T09:05:12.331Z,6.3
2023-03-28T09:06:01.939Z,6.6
2023-03-28T09:07:01.473Z,6.6
2023-03-28T09:08:01.065Z,6.7
2023-03-28T09:09:01.641Z,6.7
2023-03-28T09:10:01.267Z,7
2023-03-28T09:11:02.012Z,6.9
2023-03-28T09:12:01.482Z,6.5
2023-03-28T09:13:01.065Z,6.3
2023-03-28T09:14:01.649Z,6.3
2023-03-28T09:15:01.344Z,6.5
2023-03-28T09:16:02.070Z,6.6
2023-03-28T09:17:01.492Z,6.7
2023-03-28T09:18:01.092Z,7
2023-03-28T09:19:01.660Z,7.4
2023-03-28T09:20:01.259Z,7.6
2023-03-28T09:21:02.008Z,7.5
2023-03-28T09:22:12.985Z,7.6
2023-03-28T09:23:01.057Z,7.8
2023-03-28T09:24:01.643Z,7.9
2023-03-28T09:25:01.287Z,7.9
2023-03-28T09:26:01.998Z,7.3
2023-03-28T09:27:01.492Z,7.1
2023-03-28T09:28:01.061Z,6.8
2023-03-28T09:29:01.643Z,6.9
2023-03-28T09:30:01.234Z,7.2
2023-03-28T09:31:02.031Z,7.2
2023-03-28T09:32:01.628Z,7.4
2023-03-28T09:33:01.104Z,7.6
2023-03-28T09:34:01.663Z,7.3
2023-03-28T09:35:01.250Z,6.9
2023-03-28T09:36:01.862Z,6.8
2023-03-28T09:37:01.468Z,7
2023-03-28T09:38:01.074Z,7
2023-03-28T09:39:01.667Z,7.1
2023-03-28T09:40:01.258Z,6.7
2023-03-28T09:41:02.025Z,6.3
2023-03-28T09:42:01.532Z,6.3
2023-03-28T09:43:01.136Z,6.3
2023-03-28T09:44:01.700Z,6.3
2023-03-28T09:45:01.310Z,6.3
2023-03-28T09:46:01.906Z,6.4
2023-03-28T09:47:01.513Z,6.4
2023-03-28T09:48:01.138Z,6.4
2023-03-28T09:49:01.722Z,6.3
2023-03-28T09:50:10.018Z,6.3
2023-03-28T09:51:02.042Z,6.3
2023-03-28T09:52:01.767Z,6.4
2023-03-28T09:53:01.159Z,6.4
2023-03-28T09:54:01.782Z,6.5
2023-03-28T09:55:01.399Z,6.5
2023-03-28T09:56:04.638Z,6.5
2023-03-28T09:57:01.525Z,6.6
2023-03-28T09:58:01.174Z,6.7
2023-03-28T09:59:01.712Z,6.7
2023-03-28T10:00:01.303Z,6.8
2023-03-28T10:01:02.101Z,6.7
2023-03-28T10:02:01.914Z,6.8
2023-03-28T10:03:01.163Z,6.8
2023-03-28T10:04:01.762Z,7
2023-03-28T10:05:02.358Z,7.4
2023-03-28T10:06:01.934Z,7.7
2023-03-28T10:07:01.520Z,7.9
2023-03-28T10:08:01.113Z,7.5
2023-03-28T10:09:01.702Z,7.4
2023-03-28T10:10:01.301Z,7.3
2023-03-28T10:11:02.166Z,7.2
2023-03-28T10:12:00.971Z,7.2
2023-03-28T10:13:01.561Z,7.3
2023-03-28T10:14:01.760Z,7.2
2023-03-28T10:15:01.374Z,6.9
2023-03-28T10:16:01.989Z,7.1
2023-03-28T10:17:01.619Z,7.2
2023-03-28T10:18:01.281Z,7.4
2023-03-28T10:19:01.779Z,7.3
2023-03-28T10:20:01.369Z,7.3
2023-03-28T10:21:02.025Z,7.7
2023-03-28T10:22:01.699Z,8
2023-03-28T10:23:02.646Z,8.2
2023-03-28T10:24:01.733Z,8.2
2023-03-28T10:25:01.330Z,8.5
2023-03-28T10:26:00.964Z,8.5
2023-03-28T10:27:01.522Z,8.4
2023-03-28T10:28:01.131Z,8.1
2023-03-28T10:29:03.878Z,8
2023-03-28T10:30:01.265Z,7.8
2023-03-28T10:31:02.182Z,7.9
2023-03-28T10:32:01.545Z,8.1
2023-03-28T10:33:01.165Z,8
2023-03-28T10:34:01.695Z,8.1
2023-03-28T10:35:01.294Z,7.6
2023-03-28T10:36:01.981Z,7.2
2023-03-28T10:37:01.558Z,7.4
2023-03-28T10:38:01.438Z,7.8
2023-03-28T10:39:01.703Z,8.2
2023-03-28T10:40:01.320Z,8.4
2023-03-28T10:41:02.023Z,8.6
2023-03-28T10:42:01.552Z,8.5
2023-03-28T10:43:01.145Z,8.4
2023-03-28T10:44:01.707Z,8.5
2023-03-28T10:45:01.313Z,8.4
2023-03-28T10:46:02.016Z,8.3
2023-03-28T10:47:01.536Z,8.2
2023-03-28T10:48:01.167Z,7.9
2023-03-28T10:49:01.710Z,8
2023-03-28T10:50:01.425Z,8
2023-03-28T10:51:01.999Z,7.9
2023-03-28T10:52:01.530Z,7.8
2023-03-28T10:53:01.138Z,7.9
2023-03-28T10:54:01.706Z,7.9
2023-03-28T10:55:01.327Z,7.5
2023-03-28T10:56:01.923Z,7.3
2023-03-28T10:57:01.537Z,7.3
2023-03-28T10:58:01.190Z,7.6
2023-03-28T10:59:01.771Z,7.8
2023-03-28T11:00:01.376Z,7.7
2023-03-28T11:01:02.126Z,7.5
2023-03-28T11:02:01.108Z,7.6
2023-03-28T11:03:01.787Z,7.7
2023-03-28T11:04:01.433Z,7.6
2023-03-28T11:05:01.955Z,7.9
2023-03-28T11:06:09.284Z,8.3
2023-03-28T11:07:01.107Z,8.5
2023-03-28T11:08:01.698Z,8.8
2023-03-28T11:09:01.290Z,8.9
2023-03-28T11:10:01.870Z,8.8
2023-03-28T11:11:01.600Z,8.3
2023-03-28T11:12:01.039Z,8.1
2023-03-28T11:13:02.865Z,8
2023-03-28T11:14:01.167Z,8
2023-03-28T11:15:01.790Z,7.9
2023-03-28T11:16:01.398Z,7.9
2023-03-28T11:17:00.991Z,7.9
2023-03-28T11:18:01.650Z,8.1
2023-03-28T11:19:01.220Z,8.2
2023-03-28T11:20:01.808Z,8.3
2023-03-28T11:21:01.693Z,8.3
2023-03-28T11:22:01.015Z,8.3
2023-03-28T11:23:05.911Z,7.8
2023-03-28T11:24:01.122Z,7.7
2023-03-28T11:25:01.739Z,7.8
2023-03-28T11:26:01.337Z,8.4
2023-03-28T11:27:08.880Z,8.7
2023-03-28T11:28:01.557Z,9
2023-03-28T11:29:01.152Z,9.1
2023-03-28T11:30:01.742Z,9.1
2023-03-28T11:31:01.527Z,9.2
2023-03-28T11:32:01.954Z,9.2
2023-03-28T11:33:01.660Z,8.8
2023-03-28T11:34:01.202Z,8.7
2023-03-28T11:35:01.746Z,8.5
2023-03-28T11:36:01.391Z,8.2
2023-03-28T11:37:01.924Z,7.9
2023-03-28T11:38:01.549Z,8.1
2023-03-28T11:39:01.144Z,8.5
2023-03-28T11:40:02.312Z,8.6
2023-03-28T11:41:01.958Z,8.6
2023-03-28T11:42:01.744Z,8.4
2023-03-28T11:43:01.341Z,8.6
2023-03-28T11:44:01.931Z,8.7
2023-03-28T11:45:01.525Z,8.7
2023-03-28T11:46:01.154Z,9.1
2023-03-28T11:47:01.706Z,9.1
2023-03-28T11:48:01.334Z,9.2
2023-03-28T11:49:01.901Z,9.5
2023-03-28T11:50:01.527Z,9.3
2023-03-28T11:51:01.171Z,9.4
2023-03-28T11:52:01.662Z,9.5
2023-03-28T11:53:01.254Z,9.6
2023-03-28T11:54:01.857Z,9.8
2023-03-28T11:55:01.445Z,9.5
2023-03-28T11:56:01.191Z,9.6
2023-03-28T11:57:01.656Z,9.5
2023-03-28T11:58:01.273Z,9.4
2023-03-28T11:59:01.875Z,9.1
2023-03-28T12:00:01.487Z,9
2023-03-28T12:01:01.260Z,8.9
2023-03-28T12:02:01.740Z,9.1
2023-03-28T12:03:01.535Z,9.5
2023-03-28T12:04:02.022Z,9.5
2023-03-28T12:05:01.729Z,9.6
2023-03-28T12:06:04.732Z,9.8
2023-03-28T12:07:03.130Z,9.9
2023-03-28T12:08:01.017Z,9.7
2023-03-28T12:09:01.627Z,9.1
2023-03-28T12:10:01.215Z,8.7
2023-03-28T12:11:02.114Z,8.8
2023-03-28T12:12:01.492Z,8.7
2023-03-28T12:13:01.046Z,8.8
2023-03-28T12:14:11.316Z,8.5
2023-03-28T12:15:01.191Z,8.7
2023-03-28T12:16:01.802Z,8.6
2023-03-28T12:17:01.443Z,8.7
2023-03-28T12:18:01.078Z,9.2
2023-03-28T12:19:01.557Z,9.4
2023-03-28T12:20:01.150Z,9.6
2023-03-28T12:21:02.053Z,9.8
2023-03-28T12:22:01.424Z,10
2023-03-28T12:23:00.980Z,9.9
2023-03-28T12:24:01.562Z,9.7
2023-03-28T12:25:01.161Z,9.6
2023-03-28T12:26:01.780Z,9.1
2023-03-28T12:27:01.365Z,9.1
2023-03-28T12:28:01.002Z,8.9
2023-03-28T12:29:01.540Z,8.8
2023-03-28T12:30:01.132Z,8.8
2023-03-28T12:31:01.951Z,9
2023-03-28T12:32:01.370Z,9
2023-03-28T12:33:01.983Z,9
2023-03-28T12:34:01.600Z,9
2023-03-28T12:35:01.216Z,9.3
2023-03-28T12:36:01.801Z,9.6
2023-03-28T12:37:01.431Z,9.7
2023-03-28T12:38:01.049Z,9.7
2023-03-28T12:39:01.615Z,9.8
2023-03-28T12:40:01.238Z,9.9
2023-03-28T12:41:02.157Z,9.8
2023-03-28T12:42:01.475Z,9.6
2023-03-28T12:43:01.061Z,9.8
2023-03-28T12:44:01.663Z,9.4
2023-03-28T12:45:01.261Z,9.4
2023-03-28T12:46:01.854Z,9.3
2023-03-28T12:47:01.470Z,9
2023-03-28T12:48:01.070Z,9.3
2023-03-28T12:49:01.662Z,9.6
2023-03-28T12:50:01.254Z,9.6
2023-03-28T12:51:02.082Z,9.8
2023-03-28T12:52:01.500Z,10
2023-03-28T12:53:01.081Z,10.1
2023-03-28T12:54:01.897Z,10.2
2023-03-28T12:55:01.957Z,10.3
2023-03-28T12:56:01.811Z,10
2023-03-28T12:57:01.598Z,9.8
2023-03-28T12:58:01.153Z,10
2023-03-28T12:59:03.761Z,10.1
2023-03-28T13:00:01.295Z,10.1
2023-03-28T13:01:01.981Z,9.8
2023-03-28T13:02:01.673Z,9.7
2023-03-28T13:03:01.149Z,9.8
2023-03-28T13:04:01.764Z,9.8
2023-03-28T13:05:01.373Z,10.1
2023-03-28T13:06:02.146Z,10.3
2023-03-28T13:07:01.871Z,10.3
2023-03-28T13:08:01.203Z,10.1
2023-03-28T13:09:01.792Z,10.2
2023-03-28T13:10:01.473Z,10.3
2023-03-28T13:11:01.170Z,10.3
2023-03-28T13:12:01.593Z,10.2
2023-03-28T13:13:01.177Z,10.3
2023-03-28T13:14:01.768Z,10.3
2023-03-28T13:15:01.381Z,10.3
2023-03-28T13:16:01.985Z,10.3
2023-03-28T13:17:01.733Z,10.3
2023-03-28T13:18:01.200Z,10.2
2023-03-28T13:19:01.770Z,10.2
2023-03-28T13:20:01.361Z,10.3
2023-03-28T13:21:02.078Z,10.4
2023-03-28T13:22:01.764Z,10.1
2023-03-28T13:23:01.180Z,10.1
2023-03-28T13:24:01.771Z,10.3
2023-03-28T13:25:01.366Z,10.4
2023-03-28T13:26:02.278Z,10.6
2023-03-28T13:27:01.114Z,10.6
2023-03-28T13:28:01.771Z,10.6
2023-03-28T13:29:01.366Z,10.8
2023-03-28T13:30:01.945Z,10.8
2023-03-28T13:31:01.605Z,10.8
2023-03-28T13:32:01.186Z,11.1
2023-03-28T13:33:01.887Z,10.7
2023-03-28T13:34:01.495Z,10.7
2023-03-28T13:35:01.021Z,10.4
2023-03-28T13:36:01.912Z,10.4
2023-03-28T13:37:01.273Z,10.6
2023-03-28T13:38:01.854Z,10.7
2023-03-28T13:39:01.484Z,10.7
2023-03-28T13:40:01.032Z,10.5
2023-03-28T13:41:01.807Z,10.7
2023-03-28T13:42:01.298Z,10.8
2023-03-28T13:43:01.873Z,10.8
2023-03-28T13:44:01.472Z,10.5
2023-03-28T13:45:01.079Z,10.3
2023-03-28T13:46:01.819Z,10.5
2023-03-28T13:47:01.451Z,10.5